Terminal Aerodrome Forecast
Issued by NWS

Current Version | Previous Version | Graphics & Text | Print | Product List | Glossary Off
Versions: 1 2 3 4 5 6 7 8 9 10 11 12 13 14 15 16 17 18 19 20 21 22 23

466
FTUS41 KPBZ 291421 AAA
TAFMGW
TAF AMD
KMGW 291421Z 2914/3012 20006KT P6SM -SHRA OVC100 WS020/25050KT
     FM291600 21006KT P6SM -SHRA VCTS OVC040CB
     FM291700 29004KT 4SM -TSRA OVC045CB
     FM292200 13003KT P6SM BKN250=

USA.gov is the U.S. government's official web portal to all federal, state and local government web resources and services.